SVMI/CCS METAR and TAF weather

Enter ICAO airport designator
Station Type Date Time Source
SVMI METAR 2019/12/13 03:02 UTC NOAA

SVMI 130302Z AUTO 02004KT NCD 25/23 Q1012


Station Type Date Time Source
SVMI Decoded METAR 2019/12/13 03:02 UTC NOAA

Caracas / Maiquetia Aerop. Intl. Simon Bolivar, Venezuela (SVMI) 10-36N 066-59W 48M
Dec 12, 2019 - 10:02 PM EST / 2019.12.13 0302 UTC
Wind: from the NNE (020 degrees) at 5 MPH (4 KT):0
Temperature: 77 F (25 C)
Dew Point: 73 F (23 C)
Relative Humidity: 88%
Pressure (altimeter): 29.88 in. Hg (1012 hPa)
ob: SVMI 130302Z AUTO 02004KT NCD 25/23 Q1012
cycle: 3

Station Type Date Time Source
SVMI TAF 2019/12/12 18:04 UTC NOAA

TAF SVMI 121600Z 1218/1318 09003KT 9999 FEW016 TX28/18Z TN22/08Z
BECMG 1218/1222 09006KT SCT016

Example: see airport list